createdAt,value
2023-05-08T00:01:11.515Z,100943.41
2023-05-08T00:03:39.446Z,100941.31
2023-05-08T00:06:06.997Z,100936.88
2023-05-08T00:08:34.108Z,100944.97
2023-05-08T00:11:01.575Z,100944.06
2023-05-08T00:13:28.750Z,100945.16
2023-05-08T00:15:55.909Z,100938.97
2023-05-08T00:18:23.370Z,100943.16
2023-05-08T00:20:50.508Z,100947.62
2023-05-08T00:23:17.675Z,100949.59
2023-05-08T00:25:45.065Z,100949.97
2023-05-08T00:28:12.239Z,100949.41
2023-05-08T00:30:39.917Z,100941.75
2023-05-08T00:33:07.765Z,100951.59
2023-05-08T00:35:34.922Z,100951.56
2023-05-08T00:38:02.201Z,100957.53
2023-05-08T00:40:29.761Z,100948.50
2023-05-08T00:42:56.871Z,100961.66
2023-05-08T00:45:24.123Z,100960.44
2023-05-08T00:47:51.687Z,100958.34
2023-05-08T00:50:18.949Z,100962.97
2023-05-08T00:52:46.390Z,100960.72
2023-05-08T00:55:13.757Z,100969.72
2023-05-08T00:57:40.884Z,100974.12
2023-05-08T01:00:08.666Z,100970.13
2023-05-08T01:02:36.648Z,100971.38
2023-05-08T01:05:04.153Z,100972.78
2023-05-08T01:07:31.511Z,100976.56
2023-05-08T01:09:58.932Z,100974.72
2023-05-08T01:12:45.239Z,100973.31
2023-05-08T01:15:17.507Z,100974.72
2023-05-08T01:18:18.994Z,100975.75
2023-05-08T01:20:59.556Z,100986.37
2023-05-08T01:23:48.238Z,100990.94
2023-05-08T01:26:51.705Z,100987.09
2023-05-08T01:29:39.013Z,100981.06
2023-05-08T01:32:22.764Z,100995.81
2023-05-08T01:35:43.910Z,100997.31
2023-05-08T01:38:27.984Z,100999.53
2023-05-08T01:41:28.435Z,100993.50
2023-05-08T01:44:10.578Z,100998.78
2023-05-08T01:46:37.850Z,100998.09
2023-05-08T01:49:09.448Z,100997.66
2023-05-08T01:51:41.175Z,100999.94
2023-05-08T01:54:12.620Z,100997.72
2023-05-08T01:56:42.998Z,101005.25
2023-05-08T01:59:14.136Z,101009.66
2023-05-08T02:01:44.927Z,101002.94
2023-05-08T02:04:12.765Z,101008.28
2023-05-08T02:06:40.551Z,101008.09
2023-05-08T02:09:08.707Z,101016.66
2023-05-08T02:11:38.150Z,101011.69
2023-05-08T02:14:06.832Z,101011.16
2023-05-08T02:16:36.183Z,101018.09
2023-05-08T02:19:04.701Z,101014.53
2023-05-08T02:21:32.264Z,101018.69
2023-05-08T02:24:00.799Z,101014.72
2023-05-08T02:26:28.738Z,101021.44
2023-05-08T02:28:56.264Z,101024.66
2023-05-08T02:31:24.652Z,101025.94
2023-05-08T02:33:52.759Z,101025.09
2023-05-08T02:36:20.572Z,101027.78
2023-05-08T02:38:51.847Z,101029.97
2023-05-08T02:41:22.232Z,101023.94
2023-05-08T02:43:51.875Z,101025.56
2023-05-08T02:46:22.956Z,101032.12
2023-05-08T02:49:00.756Z,101025.81
2023-05-08T02:51:39.815Z,101019.00
2023-05-08T02:54:16.204Z,101032.66
2023-05-08T02:57:21.795Z,101036.41
2023-05-08T03:00:06.283Z,101029.75
2023-05-08T03:02:42.242Z,101033.25
2023-05-08T03:05:30.694Z,101041.47
2023-05-08T03:08:00.965Z,101039.81
2023-05-08T03:10:35.590Z,101026.94
2023-05-08T03:13:06.314Z,101030.72
2023-05-08T03:15:42.524Z,101035.12
2023-05-08T03:18:12.053Z,101037.63
2023-05-08T03:20:43.541Z,101029.87
2023-05-08T03:23:13.063Z,101034.22
2023-05-08T03:25:42.292Z,101031.88
2023-05-08T03:28:10.684Z,101042.66
2023-05-08T03:30:40.768Z,101033.16
2023-05-08T03:33:09.013Z,101042.19
2023-05-08T03:35:39.627Z,101032.00
2023-05-08T03:38:08.130Z,101035.09
2023-05-08T03:40:36.907Z,101039.97
2023-05-08T03:43:08.055Z,101046.41
2023-05-08T03:45:40.269Z,101045.81
2023-05-08T03:48:08.922Z,101044.06
2023-05-08T03:50:37.982Z,101042.19
2023-05-08T03:53:05.627Z,101042.69
2023-05-08T03:55:33.184Z,101045.75
2023-05-08T03:58:14.102Z,101047.19
2023-05-08T04:00:56.940Z,101045.59
2023-05-08T04:03:37.370Z,101050.63
2023-05-08T04:06:14.348Z,101049.56
2023-05-08T04:08:47.313Z,101043.94
2023-05-08T04:11:30.471Z,101045.91
2023-05-08T04:14:03.589Z,101050.84
2023-05-08T04:16:39.617Z,101055.59
2023-05-08T04:19:11.021Z,101064.19
2023-05-08T04:21:42.554Z,101075.00
2023-05-08T04:24:13.033Z,101069.28
2023-05-08T04:26:40.774Z,101078.50
2023-05-08T04:29:08.339Z,101074.81
2023-05-08T04:31:36.960Z,101076.09
2023-05-08T04:34:04.633Z,101073.81
2023-05-08T04:36:33.911Z,101077.63
2023-05-08T04:39:02.152Z,101077.44
2023-05-08T04:41:30.374Z,101084.44
2023-05-08T04:43:57.735Z,101080.59
2023-05-08T04:46:25.706Z,101081.34
2023-05-08T04:48:52.993Z,101092.28
2023-05-08T04:51:20.287Z,101092.25
2023-05-08T04:53:49.138Z,101101.69
2023-05-08T04:56:16.350Z,101100.59
2023-05-08T04:58:43.581Z,101101.66
2023-05-08T05:01:11.381Z,101106.09
2023-05-08T05:03:38.797Z,101105.19
2023-05-08T05:06:06.105Z,101106.97
2023-05-08T05:08:33.578Z,101106.97
2023-05-08T05:11:01.528Z,101106.50
2023-05-08T05:13:29.002Z,101111.16
2023-05-08T05:15:59.471Z,101112.19
2023-05-08T05:18:26.693Z,101113.59
2023-05-08T05:20:54.003Z,101116.84
2023-05-08T05:23:21.894Z,101113.84
2023-05-08T05:25:49.129Z,101118.72
2023-05-08T05:28:16.679Z,101123.66
2023-05-08T05:30:47.249Z,101122.66
2023-05-08T05:33:14.576Z,101124.87
2023-05-08T05:35:41.909Z,101123.06
2023-05-08T05:38:09.472Z,101123.81
2023-05-08T05:40:36.808Z,101127.78
2023-05-08T05:43:04.205Z,101127.03
2023-05-08T05:45:33.536Z,101132.56
2023-05-08T05:48:01.140Z,101128.72
2023-05-08T05:50:29.861Z,101134.16
2023-05-08T05:52:57.588Z,101131.94
2023-05-08T05:55:25.776Z,101131.87
2023-05-08T05:57:53.151Z,101139.38
2023-05-08T06:00:21.497Z,101142.19
2023-05-08T06:02:49.642Z,101129.78
2023-05-08T06:05:19.129Z,101131.44
2023-05-08T06:07:46.466Z,101138.19
2023-05-08T06:10:13.926Z,101135.56
2023-05-08T06:12:41.901Z,101129.59
2023-05-08T06:15:09.983Z,101139.53
2023-05-08T06:17:37.524Z,101128.06
2023-05-08T06:20:05.501Z,101139.34
2023-05-08T06:22:32.626Z,101141.63
2023-05-08T06:25:00.139Z,101138.28
2023-05-08T06:27:27.302Z,101143.41
2023-05-08T06:29:54.406Z,101141.28
2023-05-08T06:32:22.405Z,101149.72
2023-05-08T06:34:49.734Z,101144.75
2023-05-08T06:37:16.909Z,101149.31
2023-05-08T06:39:44.409Z,101146.06
2023-05-08T06:42:12.073Z,101140.84
2023-05-08T06:44:40.744Z,101145.22
2023-05-08T06:47:08.512Z,101155.50
2023-05-08T06:49:36.449Z,101153.72
2023-05-08T06:52:03.683Z,101152.84
2023-05-08T06:54:31.121Z,101155.87
2023-05-08T06:56:58.182Z,101161.66
2023-05-08T06:59:25.383Z,101157.06
2023-05-08T07:01:52.815Z,101159.81
2023-05-08T07:04:20.286Z,101159.37
2023-05-08T07:06:47.424Z,101164.75
2023-05-08T07:09:16.204Z,101173.78
2023-05-08T07:11:43.690Z,101165.37
2023-05-08T07:14:10.778Z,101167.50
2023-05-08T07:16:38.282Z,101167.19
2023-05-08T07:19:05.630Z,101167.19
2023-05-08T07:21:32.714Z,101170.62
2023-05-08T07:24:00.141Z,101169.00
2023-05-08T07:26:27.408Z,101171.03
2023-05-08T07:28:54.612Z,101164.78
2023-05-08T07:31:22.319Z,101165.56
2023-05-08T07:33:49.561Z,101170.13
2023-05-08T07:36:16.797Z,101177.62
2023-05-08T07:38:44.265Z,101167.12
2023-05-08T07:41:11.582Z,101176.06
2023-05-08T07:43:39.216Z,101169.75
2023-05-08T07:46:06.843Z,101166.91
2023-05-08T07:48:34.478Z,101165.53
2023-05-08T07:51:01.633Z,101171.78
2023-05-08T07:53:29.259Z,101171.78
2023-05-08T07:55:56.348Z,101172.13
2023-05-08T07:58:23.982Z,101175.06
2023-05-08T08:00:51.504Z,101176.66
2023-05-08T08:03:19.014Z,101175.69
2023-05-08T08:05:46.450Z,101172.37
2023-05-08T08:08:13.635Z,101172.16
2023-05-08T08:10:41.703Z,101154.84
2023-05-08T08:13:08.810Z,101158.38
2023-05-08T08:15:36.183Z,101164.91
2023-05-08T08:18:03.836Z,101170.25
2023-05-08T08:20:30.969Z,101162.09
2023-05-08T08:22:58.595Z,101156.22
2023-05-08T08:25:27.778Z,101157.69
2023-05-08T08:27:55.153Z,101169.37
2023-05-08T08:30:22.359Z,101161.28
2023-05-08T08:32:49.838Z,101158.16
2023-05-08T08:35:17.326Z,101158.91
2023-05-08T08:37:44.655Z,101153.50
2023-05-08T08:40:12.344Z,101166.59
2023-05-08T08:42:39.461Z,101152.09
2023-05-08T08:45:07.170Z,101158.59
2023-05-08T08:47:37.897Z,101160.50
2023-05-08T08:50:05.650Z,101160.47
2023-05-08T08:52:44.919Z,101156.72
2023-05-08T08:55:15.863Z,101154.47
2023-05-08T08:57:55.300Z,101163.44
2023-05-08T09:00:23.847Z,101162.47
2023-05-08T09:02:51.542Z,101164.72
2023-05-08T09:05:19.063Z,101163.19
2023-05-08T09:07:46.611Z,101164.72
2023-05-08T09:10:15.763Z,101166.50
2023-05-08T09:12:45.037Z,101157.72
2023-05-08T09:15:12.779Z,101154.31
2023-05-08T09:17:40.442Z,101171.84
2023-05-08T09:20:08.343Z,101159.28
2023-05-08T09:22:37.089Z,101154.81
2023-05-08T09:25:04.583Z,101144.22
2023-05-08T09:27:32.444Z,101151.47
2023-05-08T09:30:00.699Z,101143.88
2023-05-08T09:32:29.421Z,101144.00
2023-05-08T09:34:57.049Z,101143.97
2023-05-08T09:37:25.255Z,101145.78
2023-05-08T09:39:52.913Z,101136.62
2023-05-08T09:42:20.300Z,101143.97
2023-05-08T09:44:52.885Z,101135.41
2023-05-08T09:47:22.875Z,101137.59
2023-05-08T09:50:09.414Z,101129.53
2023-05-08T09:52:38.097Z,101133.06
2023-05-08T09:55:10.166Z,101123.41
2023-05-08T09:57:39.412Z,101124.66
2023-05-08T10:00:11.709Z,101128.84
2023-05-08T10:02:53.703Z,101131.25
2023-05-08T10:05:25.659Z,101126.09
2023-05-08T10:07:53.427Z,101109.88
2023-05-08T10:10:27.830Z,101120.59
2023-05-08T10:12:57.313Z,101113.81
2023-05-08T10:15:29.260Z,101117.53
2023-05-08T10:18:06.538Z,101122.66
2023-05-08T10:20:36.030Z,101104.72
2023-05-08T10:23:06.476Z,101111.22
2023-05-08T10:25:35.635Z,101105.63
2023-05-08T10:28:23.093Z,101105.06
2023-05-08T10:30:51.065Z,101096.00
2023-05-08T10:33:20.916Z,101099.25
2023-05-08T10:35:48.229Z,101101.66
2023-05-08T10:38:16.884Z,101093.06
2023-05-08T10:40:44.245Z,101098.41
2023-05-08T10:43:11.554Z,101098.31
2023-05-08T10:45:39.312Z,101093.31
2023-05-08T10:48:31.034Z,101089.78
2023-05-08T10:51:17.890Z,101094.13
2023-05-08T10:53:54.295Z,101090.78
2023-05-08T10:56:28.627Z,101092.59
2023-05-08T10:58:56.746Z,101091.00
2023-05-08T11:01:25.694Z,101083.81
2023-05-08T11:03:55.187Z,101079.84
2023-05-08T11:06:45.659Z,101094.69
2023-05-08T11:09:21.565Z,101081.97
2023-05-08T11:12:00.389Z,101073.97
2023-05-08T11:14:28.100Z,101083.41
2023-05-08T11:16:55.230Z,101069.81
2023-05-08T11:19:23.972Z,101076.47
2023-05-08T11:22:24.891Z,101072.25
2023-05-08T11:25:00.262Z,101078.81
2023-05-08T11:27:48.944Z,101067.44
2023-05-08T11:30:32.280Z,101064.69
2023-05-08T11:33:06.096Z,101066.25
2023-05-08T11:35:56.141Z,101072.94
2023-05-08T11:38:31.688Z,101070.53
2023-05-08T11:41:06.623Z,101066.34
2023-05-08T11:43:34.078Z,101060.03
2023-05-08T11:46:13.742Z,101060.37
2023-05-08T11:48:41.251Z,101065.53
2023-05-08T11:51:08.436Z,101056.56
2023-05-08T11:53:36.984Z,101064.78
2023-05-08T11:56:04.794Z,101063.25
2023-05-08T11:58:32.033Z,101059.78
2023-05-08T12:00:59.243Z,101057.63
2023-05-08T12:03:26.816Z,101056.34
2023-05-08T12:05:58.033Z,101049.25
2023-05-08T12:08:25.483Z,101055.62
2023-05-08T12:10:54.838Z,101049.97
2023-05-08T12:13:26.728Z,101054.25
2023-05-08T12:15:58.996Z,101045.88
2023-05-08T12:18:27.666Z,101045.78
2023-05-08T12:21:00.306Z,101038.72
2023-05-08T12:23:30.946Z,101039.41
2023-05-08T12:26:00.073Z,101035.09
2023-05-08T12:28:27.599Z,101037.13
2023-05-08T12:30:55.034Z,101043.97
2023-05-08T12:33:22.525Z,101047.59
2023-05-08T12:35:49.744Z,101038.94
2023-05-08T12:38:16.917Z,101044.25
2023-05-08T12:40:46.424Z,101043.41
2023-05-08T12:43:13.559Z,101043.47
2023-05-08T12:45:42.451Z,101051.16
2023-05-08T12:48:12.526Z,101046.84
2023-05-08T12:50:44.026Z,101042.59
2023-05-08T12:53:19.412Z,101032.16
2023-05-08T12:56:10.769Z,101038.97
2023-05-08T12:58:38.224Z,101044.09
2023-05-08T13:01:13.374Z,101045.38
2023-05-08T13:03:41.535Z,101039.34
2023-05-08T13:06:20.701Z,101045.47
2023-05-08T13:08:53.312Z,101043.97
2023-05-08T13:11:30.520Z,101046.91
2023-05-08T13:13:58.058Z,101039.97
2023-05-08T13:16:25.305Z,101033.91
2023-05-08T13:18:52.431Z,101028.81
2023-05-08T13:21:19.840Z,101037.16
2023-05-08T13:23:46.982Z,101037.31
2023-05-08T13:26:14.095Z,101036.25
2023-05-08T13:28:41.527Z,101038.53
2023-05-08T13:31:08.625Z,101036.63
2023-05-08T13:33:35.756Z,101035.56
2023-05-08T13:36:03.249Z,101032.94
2023-05-08T13:38:30.334Z,101027.84
2023-05-08T13:40:57.482Z,101030.66
2023-05-08T13:43:24.905Z,101031.19
2023-05-08T13:45:52.190Z,101024.78
2023-05-08T13:48:19.643Z,101032.72
2023-05-08T13:50:47.050Z,101029.97
2023-05-08T13:53:14.199Z,101025.78
2023-05-08T13:55:42.276Z,101035.53
2023-05-08T13:58:09.724Z,101025.53
2023-05-08T14:00:36.886Z,101036.69
2023-05-08T14:03:04.500Z,101035.50
2023-05-08T14:05:31.667Z,101034.97
2023-05-08T14:07:58.752Z,101031.59
2023-05-08T14:10:26.228Z,101033.72
2023-05-08T14:12:53.349Z,101032.75
2023-05-08T14:15:22.205Z,101041.78
2023-05-08T14:17:50.817Z,101033.03
2023-05-08T14:20:18.018Z,101041.50
2023-05-08T14:25:13.459Z,101039.69
2023-05-08T14:27:40.810Z,101039.41
2023-05-08T14:30:08.622Z,101055.56
2023-05-08T14:32:36.184Z,101037.00
2023-05-08T14:35:03.398Z,101044.59
2023-05-08T14:37:31.264Z,101047.44
2023-05-08T14:39:59.447Z,101045.81
2023-05-08T14:42:26.584Z,101063.31
2023-05-08T14:44:53.812Z,101046.63
2023-05-08T14:47:21.432Z,101045.34
2023-05-08T14:49:48.539Z,101054.72
2023-05-08T14:52:15.849Z,101064.09
2023-05-08T14:54:43.496Z,101053.72
2023-05-08T14:57:10.878Z,101054.50
2023-05-08T14:59:41.675Z,101043.63
2023-05-08T15:02:18.016Z,101049.66
2023-05-08T15:04:46.118Z,101050.25
2023-05-08T15:07:13.300Z,101055.31
2023-05-08T15:09:41.002Z,101060.78
2023-05-08T15:12:08.109Z,101061.78
2023-05-08T15:14:35.308Z,101057.28
2023-05-08T15:17:02.759Z,101056.31
2023-05-08T15:19:29.865Z,101058.44
2023-05-08T15:21:56.953Z,101061.03
2023-05-08T15:24:24.434Z,101054.84
2023-05-08T15:26:51.551Z,101056.78
2023-05-08T15:29:18.697Z,101054.37
2023-05-08T15:31:46.269Z,101061.47
2023-05-08T15:34:13.405Z,101057.63
2023-05-08T15:36:40.520Z,101060.25
2023-05-08T15:39:08.003Z,101063.50
2023-05-08T15:41:36.465Z,101060.81
2023-05-08T15:44:03.565Z,101050.81
2023-05-08T15:46:30.910Z,101052.53
2023-05-08T15:48:59.275Z,101054.31
2023-05-08T15:51:27.816Z,101049.84
2023-05-08T15:53:56.260Z,101058.66
2023-05-08T15:56:25.727Z,101048.50
2023-05-08T15:58:53.217Z,101043.34
2023-05-08T16:01:20.798Z,101044.41
2023-05-08T16:03:48.364Z,101038.41
2023-05-08T16:06:16.676Z,101039.28
2023-05-08T16:08:44.074Z,101044.72
2023-05-08T16:11:11.510Z,101037.37
2023-05-08T16:13:38.698Z,101039.97
2023-05-08T16:16:06.271Z,101034.50
2023-05-08T16:18:36.710Z,101038.41
2023-05-08T16:21:09.088Z,101034.00
2023-05-08T16:23:36.445Z,101039.38
2023-05-08T16:26:03.626Z,101040.94
2023-05-08T16:28:30.895Z,101045.84
2023-05-08T16:30:58.300Z,101050.06
2023-05-08T16:33:25.485Z,101052.06
2023-05-08T16:35:52.637Z,101057.06
2023-05-08T16:38:20.416Z,101065.13
2023-05-08T16:40:47.569Z,101061.50
2023-05-08T16:43:14.685Z,101066.00
2023-05-08T16:45:42.747Z,101068.78
2023-05-08T16:48:09.943Z,101073.50
2023-05-08T16:50:37.392Z,101081.22
2023-05-08T16:53:05.054Z,101075.69
2023-05-08T16:55:32.145Z,101083.75
2023-05-08T16:57:59.251Z,101087.09
2023-05-08T17:00:26.816Z,101094.59
2023-05-08T17:02:54.083Z,101099.72
2023-05-08T17:05:21.409Z,101104.84
2023-05-08T17:07:48.862Z,101105.41
2023-05-08T17:10:16.197Z,101119.94
2023-05-08T17:12:43.353Z,101124.41
2023-05-08T17:15:11.522Z,101117.41
2023-05-08T17:17:38.721Z,101121.87
2023-05-08T17:20:06.499Z,101127.38
2023-05-08T17:22:33.903Z,101140.22
2023-05-08T17:25:01.076Z,101131.56
2023-05-08T17:27:28.234Z,101148.25
2023-05-08T17:29:55.999Z,101150.19
2023-05-08T17:32:23.185Z,101159.59
2023-05-08T17:34:50.418Z,101162.91
2023-05-08T17:37:17.861Z,101163.84
2023-05-08T17:39:45.013Z,101175.28
2023-05-08T17:42:12.131Z,101185.53
2023-05-08T17:44:42.712Z,101186.37
2023-05-08T17:47:09.898Z,101186.56
2023-05-08T17:49:37.022Z,101190.19
2023-05-08T17:52:04.735Z,101193.84
2023-05-08T17:54:31.891Z,101205.94
2023-05-08T17:56:59.013Z,101214.25
2023-05-08T17:59:26.731Z,101220.72
2023-05-08T18:01:54.631Z,101223.34
2023-05-08T18:04:21.985Z,101225.53
2023-05-08T18:06:49.510Z,101218.28
2023-05-08T18:09:16.660Z,101229.72
2023-05-08T18:11:44.114Z,101226.16
2023-05-08T18:14:11.370Z,101224.03
2023-05-08T18:16:38.548Z,101239.56
2023-05-08T18:19:06.090Z,101243.03
2023-05-08T18:21:33.257Z,101243.44
2023-05-08T18:24:00.858Z,101244.91
2023-05-08T18:26:28.507Z,101251.94
2023-05-08T18:28:55.799Z,101259.44
2023-05-08T18:31:22.931Z,101264.25
2023-05-08T18:33:52.684Z,101269.38
2023-05-08T18:36:19.768Z,101275.00
2023-05-08T18:38:46.949Z,101275.09
2023-05-08T18:41:14.541Z,101278.88
2023-05-08T18:43:41.836Z,101281.94
2023-05-08T18:46:12.590Z,101292.19
2023-05-08T18:48:40.962Z,101297.41
2023-05-08T18:51:08.094Z,101300.03
2023-05-08T18:53:38.417Z,101302.00
2023-05-08T18:56:06.338Z,101304.16
2023-05-08T18:58:33.608Z,101313.41
2023-05-08T19:01:01.321Z,101309.00
2023-05-08T19:03:28.993Z,101315.75
2023-05-08T19:05:56.258Z,101312.13
2023-05-08T19:08:23.472Z,101312.03
2023-05-08T19:10:50.956Z,101322.97
2023-05-08T19:13:18.128Z,101326.88
2023-05-08T19:15:45.308Z,101325.47
2023-05-08T19:18:14.086Z,101335.56
2023-05-08T19:20:41.200Z,101337.63
2023-05-08T19:23:08.360Z,101340.59
2023-05-08T19:25:35.879Z,101336.84
2023-05-08T19:28:04.085Z,101343.09
2023-05-08T19:30:31.216Z,101343.38
2023-05-08T19:32:58.668Z,101341.22
2023-05-08T19:35:25.840Z,101346.38
2023-05-08T19:37:53.050Z,101341.69
2023-05-08T19:40:20.480Z,101346.34
2023-05-08T19:42:47.588Z,101347.00
2023-05-08T19:45:16.218Z,101354.28
2023-05-08T19:47:47.482Z,101362.13
2023-05-08T19:50:18.019Z,101352.47
2023-05-08T19:52:48.898Z,101352.63
2023-05-08T19:55:19.127Z,101356.78
2023-05-08T19:57:46.513Z,101355.44
2023-05-08T20:00:14.031Z,101349.44
2023-05-08T20:02:41.702Z,101355.66
2023-05-08T20:07:39.173Z,101355.25
2023-05-08T20:10:07.267Z,101362.81
2023-05-08T20:12:34.360Z,101358.34
2023-05-08T20:15:01.440Z,101353.69
2023-05-08T20:17:28.965Z,101347.31
2023-05-08T20:19:56.194Z,101351.03
2023-05-08T20:22:23.342Z,101350.28
2023-05-08T20:24:50.733Z,101355.50
2023-05-08T20:27:17.900Z,101352.28
2023-05-08T20:29:45.433Z,101360.03
2023-05-08T20:32:19.014Z,101348.00
2023-05-08T20:34:46.148Z,101350.94
2023-05-08T20:37:15.869Z,101348.41
2023-05-08T20:39:43.425Z,101349.25
2023-05-08T20:42:10.639Z,101356.44
2023-05-08T20:44:38.014Z,101347.94
2023-05-08T20:47:05.200Z,101346.41
2023-05-08T20:49:32.340Z,101345.91
2023-05-08T20:51:59.748Z,101347.44
2023-05-08T20:54:29.349Z,101351.87
2023-05-08T20:56:56.462Z,101349.63
2023-05-08T20:59:23.864Z,101343.53
2023-05-08T21:01:51.124Z,101345.25
2023-05-08T21:04:18.337Z,101345.41
2023-05-08T21:06:45.767Z,101349.03
2023-05-08T21:09:12.907Z,101345.31
2023-05-08T21:11:40.017Z,101343.59
2023-05-08T21:14:07.427Z,101346.47
2023-05-08T21:16:34.598Z,101343.69
2023-05-08T21:19:01.864Z,101343.44
2023-05-08T21:21:29.216Z,101340.97
2023-05-08T21:23:56.307Z,101336.28
2023-05-08T21:26:23.812Z,101345.81
2023-05-08T21:28:53.681Z,101338.87
2023-05-08T21:31:20.851Z,101329.88
2023-05-08T21:33:47.997Z,101328.53
2023-05-08T21:36:15.448Z,101335.50
2023-05-08T21:38:42.551Z,101341.16
2023-05-08T21:41:09.697Z,101334.34
2023-05-08T21:43:37.251Z,101332.22
2023-05-08T21:46:05.543Z,101341.91
2023-05-08T21:48:33.488Z,101335.50
2023-05-08T21:51:01.198Z,101323.78
2023-05-08T21:53:28.501Z,101335.09
2023-05-08T21:55:55.634Z,101321.41
2023-05-08T21:58:23.203Z,101322.31
2023-05-08T22:00:50.313Z,101324.09
2023-05-08T22:03:18.143Z,101320.69
2023-05-08T22:05:45.460Z,101312.53
2023-05-08T22:08:12.726Z,101321.91
2023-05-08T22:10:40.197Z,101324.59
2023-05-08T22:13:07.594Z,101316.78
2023-05-08T22:15:34.956Z,101326.69
2023-05-08T22:18:02.858Z,101319.84
2023-05-08T22:20:30.439Z,101328.06
2023-05-08T22:22:57.532Z,101328.53
2023-05-08T22:25:25.702Z,101325.41
2023-05-08T22:27:52.839Z,101321.03
2023-05-08T22:30:20.018Z,101316.50
2023-05-08T22:32:55.869Z,101314.00
2023-05-08T22:35:24.492Z,101312.03
2023-05-08T22:37:52.587Z,101312.84
2023-05-08T22:40:22.000Z,101320.47
2023-05-08T22:42:51.556Z,101330.31
2023-05-08T22:45:19.448Z,101326.78
2023-05-08T22:47:46.573Z,101327.88
2023-05-08T22:50:13.891Z,101331.06
2023-05-08T22:52:41.326Z,101330.69
2023-05-08T22:55:08.859Z,101332.06
2023-05-08T22:57:36.005Z,101336.19
2023-05-08T23:00:04.103Z,101330.28
2023-05-08T23:02:33.348Z,101338.37
2023-05-08T23:05:00.949Z,101336.53
2023-05-08T23:07:28.988Z,101323.16
2023-05-08T23:09:56.141Z,101333.53
2023-05-08T23:12:23.236Z,101329.28
2023-05-08T23:14:50.651Z,101334.38
2023-05-08T23:17:17.732Z,101330.22
2023-05-08T23:19:45.636Z,101331.94
2023-05-08T23:22:13.147Z,101326.97
2023-05-08T23:24:40.316Z,101331.34
2023-05-08T23:27:07.475Z,101325.72
2023-05-08T23:29:34.911Z,101325.63
2023-05-08T23:32:02.054Z,101325.00
2023-05-08T23:34:29.164Z,101325.69
2023-05-08T23:36:56.961Z,101322.63
2023-05-08T23:39:24.145Z,101316.62
2023-05-08T23:41:51.258Z,101311.03
2023-05-08T23:44:18.883Z,101308.47
2023-05-08T23:46:46.349Z,101313.06
2023-05-08T23:49:13.538Z,101311.03
2023-05-08T23:51:41.068Z,101311.37
2023-05-08T23:54:08.190Z,101311.50
2023-05-08T23:56:35.424Z,101303.69
2023-05-08T23:59:02.856Z,101308.34
